createdAt,value
2022-11-05T00:01:48.063Z,14.00
2022-11-05T00:04:33.445Z,14.00
2022-11-05T00:07:45.482Z,14.00
2022-11-05T00:10:22.556Z,13.70
2022-11-05T00:13:08.001Z,13.60
2022-11-05T00:15:53.510Z,13.70
2022-11-05T00:18:20.390Z,13.70
2022-11-05T00:20:47.173Z,14.10
2022-11-05T00:23:32.410Z,14.20
2022-11-05T00:26:03.650Z,14.20
2022-11-05T00:28:30.671Z,14.10
2022-11-05T00:31:01.852Z,14.00
2022-11-05T00:33:29.081Z,13.80
2022-11-05T00:35:55.843Z,13.60
2022-11-05T00:38:22.672Z,13.40
2022-11-05T00:40:49.447Z,13.30
2022-11-05T00:43:34.771Z,13.50
2022-11-05T00:46:01.622Z,13.40
2022-11-05T00:48:47.374Z,13.30
2022-11-05T00:51:14.175Z,13.40
2022-11-05T00:53:40.954Z,13.70
2022-11-05T00:56:07.793Z,13.30
2022-11-05T00:58:34.563Z,13.40
2022-11-05T01:01:01.545Z,13.50
2022-11-05T01:03:30.296Z,13.80
2022-11-05T01:05:58.705Z,14.10
2022-11-05T01:08:26.962Z,14.00
2022-11-05T01:10:55.460Z,13.70
2022-11-05T01:13:32.887Z,13.50
2022-11-05T01:16:05.224Z,13.30
2022-11-05T01:18:32.022Z,13.40
2022-11-05T01:20:58.748Z,13.50
2022-11-05T01:23:25.485Z,13.30
2022-11-05T01:25:52.312Z,13.50
2022-11-05T01:28:19.138Z,13.80
2022-11-05T01:30:46.038Z,13.80
2022-11-05T01:33:13.139Z,13.90
2022-11-05T01:35:40.220Z,13.80
2022-11-05T01:38:06.995Z,13.60
2022-11-05T01:40:33.870Z,13.90
2022-11-05T01:43:00.654Z,14.00
2022-11-05T01:45:27.996Z,14.10
2022-11-05T01:48:00.865Z,13.90
2022-11-05T01:50:34.943Z,13.90
2022-11-05T01:53:19.698Z,13.90
2022-11-05T01:55:49.741Z,13.90
2022-11-05T01:58:18.381Z,13.90
2022-11-05T02:00:45.192Z,14.10
2022-11-05T02:03:12.810Z,13.90
2022-11-05T02:05:40.267Z,13.80
2022-11-05T02:08:07.793Z,13.90
2022-11-05T02:10:34.543Z,13.90
2022-11-05T02:13:01.408Z,13.90
2022-11-05T02:15:38.612Z,14.00
2022-11-05T02:18:41.070Z,14.00
2022-11-05T02:21:32.359Z,13.90
2022-11-05T02:24:16.290Z,14.00
2022-11-05T02:27:05.233Z,14.00
2022-11-05T02:29:40.383Z,14.10
2022-11-05T02:32:10.089Z,14.10
2022-11-05T02:34:51.357Z,14.10
2022-11-05T02:37:41.669Z,14.00
2022-11-05T02:40:34.233Z,14.10
2022-11-05T02:43:24.752Z,13.90
2022-11-05T02:46:10.454Z,13.90
2022-11-05T02:48:48.523Z,13.60
2022-11-05T02:51:27.095Z,13.20
2022-11-05T02:53:57.997Z,13.50
2022-11-05T02:56:55.459Z,13.40
2022-11-05T02:59:22.279Z,13.20
2022-11-05T03:01:49.185Z,13.20
2022-11-05T03:04:17.270Z,13.20
2022-11-05T03:07:05.959Z,13.40
2022-11-05T03:10:01.645Z,13.50
2022-11-05T03:12:28.506Z,13.70
2022-11-05T03:15:22.289Z,13.80
2022-11-05T03:18:13.665Z,13.60
2022-11-05T03:21:06.739Z,13.60
2022-11-05T03:23:52.614Z,13.50
2022-11-05T03:26:23.963Z,13.60
2022-11-05T03:28:54.309Z,13.90
2022-11-05T03:31:21.159Z,13.90
2022-11-05T03:33:48.014Z,14.00
2022-11-05T03:36:19.480Z,13.90
2022-11-05T03:38:48.443Z,13.90
2022-11-05T03:41:15.834Z,13.90
2022-11-05T03:43:47.797Z,13.50
2022-11-05T03:46:21.656Z,12.80
2022-11-05T03:48:50.452Z,12.40
2022-11-05T03:51:46.724Z,12.20
2022-11-05T03:54:13.506Z,11.90
2022-11-05T03:57:03.859Z,12.00
2022-11-05T03:59:31.170Z,12.00
2022-11-05T04:01:58.343Z,12.20
2022-11-05T04:04:25.432Z,12.10
2022-11-05T04:07:10.638Z,12.30
2022-11-05T04:09:56.059Z,12.00
2022-11-05T04:12:41.614Z,11.70
2022-11-05T04:15:08.794Z,11.80
2022-11-05T04:17:35.626Z,12.00
2022-11-05T04:20:20.976Z,11.90
2022-11-05T04:23:06.224Z,11.80
2022-11-05T04:25:33.154Z,12.00
2022-11-05T04:28:02.834Z,12.00
2022-11-05T04:30:29.655Z,12.00
2022-11-05T04:32:59.676Z,11.80
2022-11-05T04:35:30.689Z,11.20
2022-11-05T04:37:57.485Z,11.50
2022-11-05T04:40:24.408Z,11.60
2022-11-05T04:42:51.234Z,11.70
2022-11-05T04:45:18.007Z,11.80
2022-11-05T04:47:44.833Z,11.80
2022-11-05T04:50:13.202Z,11.40
2022-11-05T04:52:40.304Z,11.50
2022-11-05T04:55:07.330Z,11.80
2022-11-05T04:57:34.313Z,11.80
2022-11-05T05:00:01.199Z,11.90
2022-11-05T05:02:28.389Z,12.00
2022-11-05T05:04:55.164Z,11.80
2022-11-05T05:07:21.990Z,11.60
2022-11-05T05:09:48.816Z,11.70
2022-11-05T05:12:15.682Z,11.70
2022-11-05T05:14:42.440Z,11.60
2022-11-05T05:17:09.271Z,11.60
2022-11-05T05:19:56.008Z,11.50
2022-11-05T05:22:22.759Z,11.60
2022-11-05T05:24:52.819Z,11.60
2022-11-05T05:27:20.437Z,11.50
2022-11-05T05:29:47.188Z,11.40
2022-11-05T05:32:13.985Z,11.50
2022-11-05T05:34:40.802Z,11.50
2022-11-05T05:37:07.560Z,11.30
2022-11-05T05:39:34.301Z,11.30
2022-11-05T05:42:01.036Z,11.50
2022-11-05T05:44:27.805Z,11.50
2022-11-05T05:46:55.553Z,11.40
2022-11-05T05:49:22.370Z,11.10
2022-11-05T05:51:49.844Z,11.00
2022-11-05T05:54:16.689Z,10.80
2022-11-05T05:56:44.429Z,10.80
2022-11-05T05:59:11.364Z,11.10
2022-11-05T06:01:38.303Z,10.90
2022-11-05T06:04:05.332Z,11.20
2022-11-05T06:06:32.096Z,11.30
2022-11-05T06:08:59.023Z,11.30
2022-11-05T06:11:26.128Z,11.40
2022-11-05T06:13:52.885Z,11.30
2022-11-05T06:16:19.680Z,11.10
2022-11-05T06:18:46.675Z,10.70
2022-11-05T06:21:15.348Z,10.40
2022-11-05T06:23:42.897Z,10.70
2022-11-05T06:26:14.478Z,10.70
2022-11-05T06:28:42.140Z,11.10
2022-11-05T06:31:12.847Z,11.10
2022-11-05T06:33:40.039Z,11.20
2022-11-05T06:36:07.590Z,11.10
2022-11-05T06:38:35.816Z,11.00
2022-11-05T06:41:07.163Z,11.10
2022-11-05T06:43:36.796Z,10.90
2022-11-05T06:46:03.739Z,11.00
2022-11-05T06:48:30.615Z,10.90
2022-11-05T06:50:57.443Z,11.00
2022-11-05T06:53:24.440Z,11.20
2022-11-05T06:55:51.255Z,11.30
2022-11-05T06:58:18.050Z,11.30
2022-11-05T07:00:45.156Z,10.90
2022-11-05T07:03:12.612Z,10.60
2022-11-05T07:05:42.258Z,10.80
2022-11-05T07:08:09.105Z,10.50
2022-11-05T07:10:35.890Z,10.70
2022-11-05T07:13:07.704Z,11.00
2022-11-05T07:15:35.105Z,10.90
2022-11-05T07:18:02.216Z,11.20
2022-11-05T07:20:33.904Z,11.40
2022-11-05T07:23:05.030Z,11.40
2022-11-05T07:25:32.436Z,11.30
2022-11-05T07:27:59.317Z,11.40
2022-11-05T07:30:26.226Z,11.40
2022-11-05T07:32:53.020Z,11.30
2022-11-05T07:35:19.797Z,11.30
2022-11-05T07:37:47.759Z,11.00
2022-11-05T07:40:15.062Z,10.60
2022-11-05T07:42:43.442Z,10.70
2022-11-05T07:45:10.802Z,10.30
2022-11-05T07:47:38.852Z,10.90
2022-11-05T07:50:06.231Z,10.90
2022-11-05T07:52:32.987Z,11.00
2022-11-05T07:54:59.804Z,11.20
2022-11-05T07:57:26.563Z,11.20
2022-11-05T07:59:53.377Z,11.10
2022-11-05T08:02:20.553Z,11.20
2022-11-05T08:04:47.444Z,11.20
2022-11-05T08:07:14.219Z,11.10
2022-11-05T08:09:40.985Z,11.10
2022-11-05T08:12:08.602Z,11.20
2022-11-05T08:14:35.499Z,11.20
2022-11-05T08:17:02.315Z,11.10
2022-11-05T08:19:29.102Z,11.20
2022-11-05T08:21:55.867Z,11.20
2022-11-05T08:24:22.699Z,11.10
2022-11-05T08:26:49.554Z,11.10
2022-11-05T08:29:16.503Z,11.00
2022-11-05T08:31:43.291Z,11.20
2022-11-05T08:34:10.167Z,11.20
2022-11-05T08:36:37.033Z,10.90
2022-11-05T08:39:03.938Z,11.00
2022-11-05T08:41:30.807Z,11.00
2022-11-05T08:43:57.624Z,10.90
2022-11-05T08:46:24.484Z,11.10
2022-11-05T08:48:51.259Z,10.90
2022-11-05T08:51:18.135Z,11.00
2022-11-05T08:53:44.878Z,11.10
2022-11-05T08:56:11.649Z,11.10
2022-11-05T08:58:38.441Z,11.10
2022-11-05T09:01:05.805Z,10.80
2022-11-05T09:03:32.834Z,10.90
2022-11-05T09:05:59.628Z,11.00
2022-11-05T09:08:26.390Z,11.20
2022-11-05T09:10:53.169Z,11.30
2022-11-05T09:13:20.600Z,11.20
2022-11-05T09:15:50.608Z,11.20
2022-11-05T09:18:17.479Z,11.30
2022-11-05T09:20:44.365Z,11.30
2022-11-05T09:23:11.941Z,11.40
2022-11-05T09:25:39.077Z,11.40
2022-11-05T09:28:17.454Z,11.50
2022-11-05T09:30:46.067Z,11.50
2022-11-05T09:33:13.169Z,11.30
2022-11-05T09:35:40.846Z,11.30
2022-11-05T09:38:07.912Z,11.40
2022-11-05T09:40:40.687Z,11.30
2022-11-05T09:43:07.595Z,11.40
2022-11-05T09:45:34.425Z,11.30
2022-11-05T09:48:28.375Z,11.60
2022-11-05T09:50:55.286Z,11.60
2022-11-05T09:53:22.814Z,11.30
2022-11-05T09:55:57.081Z,11.50
2022-11-05T09:58:46.045Z,11.60
2022-11-05T10:01:21.822Z,11.50
2022-11-05T10:03:51.440Z,11.40
2022-11-05T10:06:23.216Z,11.40
2022-11-05T10:08:56.794Z,11.70
2022-11-05T10:11:37.706Z,11.50
2022-11-05T10:14:27.488Z,11.40
2022-11-05T10:17:26.493Z,11.30
2022-11-05T10:19:58.535Z,11.30
2022-11-05T10:22:25.441Z,11.10
2022-11-05T10:24:52.319Z,11.10
2022-11-05T10:27:37.507Z,11.20
2022-11-05T10:30:04.637Z,11.10
2022-11-05T10:32:36.482Z,11.20
2022-11-05T10:35:05.335Z,11.30
2022-11-05T10:37:32.942Z,11.30
2022-11-05T10:40:01.920Z,11.30
2022-11-05T10:43:15.878Z,11.40
2022-11-05T10:45:55.442Z,11.50
2022-11-05T10:48:44.264Z,11.60
2022-11-05T10:51:11.388Z,11.40
2022-11-05T10:53:41.441Z,11.40
2022-11-05T10:56:31.665Z,11.50
2022-11-05T10:58:59.989Z,11.20
2022-11-05T11:01:27.107Z,11.40
2022-11-05T11:04:06.088Z,11.20
2022-11-05T11:06:37.776Z,11.10
2022-11-05T11:09:17.736Z,11.30
2022-11-05T11:11:44.509Z,11.10
2022-11-05T11:14:14.066Z,11.10
2022-11-05T11:16:42.486Z,11.30
2022-11-05T11:19:25.622Z,11.30
2022-11-05T11:22:04.627Z,11.20
2022-11-05T11:24:45.422Z,11.10
2022-11-05T11:27:24.293Z,11.10
2022-11-05T11:30:15.845Z,11.20
2022-11-05T11:32:42.697Z,11.30
2022-11-05T11:35:21.979Z,11.20
2022-11-05T11:37:48.856Z,11.40
2022-11-05T11:40:16.765Z,11.40
2022-11-05T11:42:52.712Z,11.50
2022-11-05T11:45:49.816Z,11.50
2022-11-05T11:48:18.599Z,11.50
2022-11-05T11:50:46.743Z,11.50
2022-11-05T11:53:34.603Z,11.70
2022-11-05T11:56:14.822Z,11.70
2022-11-05T11:58:42.867Z,11.70
2022-11-05T12:01:09.605Z,11.70
2022-11-05T12:03:46.998Z,11.80
2022-11-05T12:06:21.787Z,11.50
2022-11-05T12:09:03.396Z,11.60
2022-11-05T12:11:50.989Z,11.90
2022-11-05T12:14:28.392Z,12.20
2022-11-05T12:17:00.992Z,12.20
2022-11-05T12:19:36.973Z,12.20
2022-11-05T12:23:01.572Z,11.60
2022-11-05T12:25:47.577Z,11.50
2022-11-05T12:28:29.331Z,11.40
2022-11-05T12:31:05.618Z,11.50
2022-11-05T12:33:43.629Z,11.50
2022-11-05T12:36:21.459Z,11.50
2022-11-05T12:39:35.349Z,11.60
2022-11-05T12:42:08.317Z,11.50
2022-11-05T12:44:57.015Z,11.50
2022-11-05T12:47:35.228Z,11.40
2022-11-05T12:50:40.493Z,11.50
2022-11-05T12:53:44.841Z,11.20
2022-11-05T12:56:26.291Z,11.20
2022-11-05T12:58:59.739Z,11.30
2022-11-05T13:01:41.938Z,11.30
2022-11-05T13:04:34.604Z,11.10
2022-11-05T13:07:04.201Z,11.20
2022-11-05T13:09:41.885Z,11.30
2022-11-05T13:12:11.146Z,11.30
2022-11-05T13:14:43.876Z,11.20
2022-11-05T13:17:19.162Z,11.10
2022-11-05T13:19:48.360Z,11.10
2022-11-05T13:22:27.036Z,11.00
2022-11-05T13:24:59.254Z,10.90
2022-11-05T13:27:35.145Z,11.10
2022-11-05T13:30:06.471Z,11.00
2022-11-05T13:32:38.746Z,11.00
2022-11-05T13:35:07.607Z,10.90
2022-11-05T13:37:59.212Z,11.10
2022-11-05T13:40:35.401Z,11.10
2022-11-05T13:43:04.899Z,11.00
2022-11-05T13:45:47.405Z,11.00
2022-11-05T13:48:32.600Z,11.00
2022-11-05T13:51:27.700Z,11.00
2022-11-05T13:53:57.296Z,11.00
2022-11-05T13:56:58.943Z,10.90
2022-11-05T13:59:34.918Z,10.90
2022-11-05T14:02:18.903Z,11.00
2022-11-05T14:04:47.836Z,11.20
2022-11-05T14:07:17.647Z,11.10
2022-11-05T14:09:44.359Z,11.10
2022-11-05T14:12:26.504Z,10.90
2022-11-05T14:14:58.889Z,11.00
2022-11-05T14:17:33.935Z,11.00
2022-11-05T14:20:06.516Z,11.00
2022-11-05T14:22:33.317Z,11.00
2022-11-05T14:25:00.829Z,11.20
2022-11-05T14:27:36.769Z,11.10
2022-11-05T14:30:40.925Z,11.20
2022-11-05T14:33:15.241Z,11.20
2022-11-05T14:35:42.165Z,11.20
2022-11-05T14:38:20.263Z,11.10
2022-11-05T14:40:47.452Z,10.90
2022-11-05T14:43:14.394Z,10.80
2022-11-05T14:45:52.225Z,10.80
2022-11-05T14:48:35.423Z,10.80
2022-11-05T14:51:02.281Z,10.80
2022-11-05T14:53:33.567Z,10.90
2022-11-05T14:56:07.367Z,10.90
2022-11-05T14:58:36.107Z,10.80
2022-11-05T15:01:10.133Z,10.70
2022-11-05T15:03:45.970Z,10.60
2022-11-05T15:06:34.115Z,10.70
2022-11-05T15:09:00.878Z,10.60
2022-11-05T15:11:39.005Z,10.60
2022-11-05T15:14:27.036Z,10.80
2022-11-05T15:16:56.169Z,10.60
2022-11-05T15:19:27.311Z,10.70
2022-11-05T15:21:54.787Z,10.70
2022-11-05T15:24:21.626Z,10.60
2022-11-05T15:26:52.440Z,10.50
2022-11-05T15:29:22.162Z,10.70
2022-11-05T15:31:49.089Z,10.60
2022-11-05T15:34:20.332Z,10.60
2022-11-05T15:36:52.269Z,10.60
2022-11-05T15:39:45.936Z,10.60
2022-11-05T15:42:17.431Z,10.60
2022-11-05T15:44:48.584Z,10.50
2022-11-05T15:47:19.557Z,10.50
2022-11-05T15:49:50.113Z,10.50
2022-11-05T15:52:19.403Z,10.50
2022-11-05T15:54:46.215Z,10.40
2022-11-05T15:57:31.112Z,10.50
2022-11-05T15:59:57.963Z,10.40
2022-11-05T16:02:35.278Z,10.40
2022-11-05T16:05:06.751Z,10.40
2022-11-05T16:07:33.628Z,10.50
2022-11-05T16:10:01.406Z,10.40
2022-11-05T16:12:34.612Z,10.40
2022-11-05T16:15:04.816Z,10.60
2022-11-05T16:17:45.585Z,10.60
2022-11-05T16:20:24.609Z,10.50
2022-11-05T16:22:53.767Z,10.50
2022-11-05T16:25:39.079Z,10.60
2022-11-05T16:28:29.175Z,10.50
2022-11-05T16:31:00.807Z,10.60
2022-11-05T16:33:35.284Z,10.50
2022-11-05T16:36:02.054Z,10.50
2022-11-05T16:38:29.288Z,10.60
2022-11-05T16:40:56.023Z,10.60
2022-11-05T16:43:24.749Z,10.50
2022-11-05T16:45:54.456Z,10.60
2022-11-05T16:48:21.356Z,10.70
2022-11-05T16:50:48.125Z,10.80
2022-11-05T16:53:14.922Z,10.80
2022-11-05T16:55:42.397Z,10.80
2022-11-05T16:58:35.493Z,10.90
2022-11-05T17:01:04.966Z,10.70
2022-11-05T17:03:31.800Z,10.90
2022-11-05T17:05:58.632Z,11.00
2022-11-05T17:08:25.498Z,11.10
2022-11-05T17:10:52.277Z,11.10
2022-11-05T17:13:19.806Z,11.00
2022-11-05T17:15:47.956Z,11.20
2022-11-05T17:18:18.530Z,11.30
2022-11-05T17:20:53.951Z,11.30
2022-11-05T17:23:22.498Z,11.30
2022-11-05T17:25:54.154Z,11.40
2022-11-05T17:28:21.108Z,11.40
2022-11-05T17:30:54.156Z,11.30
2022-11-05T17:33:22.763Z,11.20
2022-11-05T17:35:49.963Z,11.20
2022-11-05T17:38:16.814Z,11.10
2022-11-05T17:40:43.661Z,11.20
2022-11-05T17:43:11.183Z,11.20
2022-11-05T17:45:42.848Z,11.30
2022-11-05T17:48:10.509Z,11.20
2022-11-05T17:50:47.420Z,11.20
2022-11-05T17:53:15.194Z,11.30
2022-11-05T17:55:42.821Z,11.30
2022-11-05T17:58:09.807Z,11.50
2022-11-05T18:00:36.823Z,11.50
2022-11-05T18:03:03.692Z,11.40
2022-11-05T18:05:30.965Z,11.30
2022-11-05T18:07:58.254Z,11.50
2022-11-05T18:10:25.139Z,11.40
2022-11-05T18:12:51.959Z,11.50
2022-11-05T18:15:18.786Z,11.30
2022-11-05T18:17:46.260Z,11.20
2022-11-05T18:20:18.653Z,11.10
2022-11-05T18:22:46.548Z,11.20
2022-11-05T18:25:13.970Z,11.20
2022-11-05T18:27:40.851Z,11.20
2022-11-05T18:30:08.578Z,11.20
2022-11-05T18:32:35.531Z,11.30
2022-11-05T18:35:02.292Z,11.40
2022-11-05T18:37:29.084Z,11.40
2022-11-05T18:39:55.853Z,11.50
2022-11-05T18:42:22.710Z,11.20
2022-11-05T18:44:49.512Z,11.40
2022-11-05T18:47:16.289Z,11.40
2022-11-05T18:49:43.106Z,11.00
2022-11-05T18:52:09.930Z,11.30
2022-11-05T18:54:36.674Z,11.20
2022-11-05T18:57:03.590Z,11.10
2022-11-05T18:59:39.520Z,11.20
2022-11-05T19:02:07.552Z,11.10
2022-11-05T19:04:37.605Z,11.00
2022-11-05T19:07:05.744Z,10.90
2022-11-05T19:09:37.080Z,11.20
2022-11-05T19:12:04.574Z,11.20
2022-11-05T19:14:31.506Z,11.30
2022-11-05T19:16:58.973Z,11.30
2022-11-05T19:19:25.870Z,11.50
2022-11-05T19:21:52.778Z,11.60
2022-11-05T19:24:19.504Z,11.60
2022-11-05T19:26:47.508Z,11.40
2022-11-05T19:29:14.268Z,11.50
2022-11-05T19:31:41.058Z,11.40
2022-11-05T19:34:08.228Z,11.50
2022-11-05T19:36:35.060Z,11.40
2022-11-05T19:39:04.356Z,11.40
2022-11-05T19:41:31.155Z,11.50
2022-11-05T19:43:59.144Z,11.60
2022-11-05T19:46:26.059Z,11.50
2022-11-05T19:48:53.012Z,11.30
2022-11-05T19:51:24.448Z,11.20
2022-11-05T19:53:52.724Z,11.20
2022-11-05T19:56:23.971Z,11.50
2022-11-05T19:58:50.881Z,11.50
2022-11-05T20:01:18.284Z,11.60
2022-11-05T20:03:45.426Z,11.50
2022-11-05T20:06:14.310Z,11.40
2022-11-05T20:08:59.835Z,11.20
2022-11-05T20:11:28.191Z,11.20
2022-11-05T20:13:54.931Z,11.00
2022-11-05T20:16:26.504Z,11.10
2022-11-05T20:18:53.479Z,11.40
2022-11-05T20:21:20.426Z,11.50
2022-11-05T20:23:47.489Z,11.50
2022-11-05T20:26:14.387Z,11.30
2022-11-05T20:28:42.653Z,11.20
2022-11-05T20:31:10.650Z,11.30
2022-11-05T20:33:37.855Z,11.20
2022-11-05T20:36:06.400Z,11.20
2022-11-05T20:38:33.179Z,11.10
2022-11-05T20:40:59.935Z,11.10
2022-11-05T20:43:30.317Z,11.10
2022-11-05T20:45:58.285Z,11.10
2022-11-05T20:48:25.079Z,11.00
2022-11-05T20:50:52.091Z,11.20
2022-11-05T20:53:19.123Z,11.30
2022-11-05T20:55:47.026Z,11.40
2022-11-05T20:58:15.019Z,11.50
2022-11-05T21:00:47.681Z,11.50
2022-11-05T21:03:14.436Z,11.30
2022-11-05T21:05:46.051Z,11.40
2022-11-05T21:08:13.395Z,11.60
2022-11-05T21:10:40.598Z,11.50
2022-11-05T21:13:07.368Z,11.30
2022-11-05T21:15:34.140Z,11.40
2022-11-05T21:18:00.968Z,11.40
2022-11-05T21:20:27.838Z,11.40
2022-11-05T21:22:54.651Z,11.30
2022-11-05T21:25:21.422Z,11.20
2022-11-05T21:27:48.291Z,11.30
2022-11-05T21:30:15.232Z,11.40
2022-11-05T21:32:42.010Z,11.30
2022-11-05T21:35:08.954Z,11.20
2022-11-05T21:37:35.734Z,11.20
2022-11-05T21:40:02.534Z,11.10
2022-11-05T21:42:29.647Z,11.00
2022-11-05T21:45:00.170Z,11.10
2022-11-05T21:47:28.912Z,11.10
2022-11-05T21:49:55.648Z,11.30
2022-11-05T21:52:40.793Z,11.30
2022-11-05T21:55:41.238Z,11.30
2022-11-05T21:58:33.698Z,11.50
2022-11-05T22:01:00.902Z,11.50
2022-11-05T22:03:27.833Z,11.50
2022-11-05T22:05:55.991Z,11.50
2022-11-05T22:08:22.826Z,11.40
2022-11-05T22:10:49.618Z,11.40
2022-11-05T22:13:16.411Z,11.50
2022-11-05T22:15:43.155Z,11.30
2022-11-05T22:18:10.295Z,11.30
2022-11-05T22:20:40.186Z,11.20
2022-11-05T22:23:11.082Z,11.10
2022-11-05T22:25:38.356Z,11.20
2022-11-05T22:28:05.140Z,11.10
2022-11-05T22:30:35.484Z,11.20
2022-11-05T22:33:02.371Z,11.30
2022-11-05T22:35:29.149Z,11.40
2022-11-05T22:37:55.909Z,11.30
2022-11-05T22:40:24.137Z,11.30
2022-11-05T22:42:51.136Z,11.20
2022-11-05T22:45:18.384Z,11.20
2022-11-05T22:47:45.119Z,11.20
2022-11-05T22:50:11.955Z,11.60
2022-11-05T22:52:38.807Z,11.60
2022-11-05T22:55:06.297Z,11.50
2022-11-05T22:57:33.101Z,11.40
2022-11-05T23:00:00.321Z,11.40
2022-11-05T23:02:27.268Z,11.30
2022-11-05T23:04:54.176Z,11.30
2022-11-05T23:07:39.599Z,11.40
2022-11-05T23:10:25.528Z,11.40
2022-11-05T23:12:53.184Z,11.40
2022-11-05T23:15:38.408Z,11.50
2022-11-05T23:18:23.817Z,11.40
2022-11-05T23:21:09.256Z,11.30
2022-11-05T23:23:54.663Z,11.30
2022-11-05T23:26:40.092Z,11.30
2022-11-05T23:29:06.942Z,11.20
2022-11-05T23:31:52.272Z,11.30
2022-11-05T23:34:19.083Z,11.30
2022-11-05T23:37:04.518Z,11.40
2022-11-05T23:39:31.281Z,11.50
2022-11-05T23:42:16.565Z,11.60
2022-11-05T23:45:02.041Z,11.60
2022-11-05T23:48:07.428Z,11.60
2022-11-05T23:50:38.490Z,11.30
2022-11-05T23:53:06.848Z,11.40
2022-11-05T23:55:33.636Z,11.50
2022-11-05T23:58:00.385Z,11.50
